createdAt,value
2019-04-12T00:01:54.250Z,2.80
2019-04-12T00:04:22.797Z,2.80
2019-04-12T00:06:51.284Z,2.80
2019-04-12T00:09:19.769Z,3.00
2019-04-12T00:11:48.306Z,3.10
2019-04-12T00:14:16.785Z,3.10
2019-04-12T00:16:45.269Z,3.20
2019-04-12T00:19:14.421Z,3.20
2019-04-12T00:21:45.617Z,3.30
2019-04-12T00:24:14.020Z,3.30
2019-04-12T00:26:43.363Z,3.30
2019-04-12T00:29:11.856Z,3.20
2019-04-12T00:31:40.339Z,3.20
2019-04-12T00:34:08.832Z,3.00
2019-04-12T00:36:37.313Z,2.90
2019-04-12T00:39:07.496Z,2.80
2019-04-12T00:41:35.970Z,2.80
2019-04-12T00:44:04.571Z,2.70
2019-04-12T00:46:35.115Z,2.70
2019-04-12T00:49:03.370Z,2.60
2019-04-12T00:51:31.883Z,2.50
2019-04-12T00:54:00.481Z,2.50
2019-04-12T00:56:29.378Z,2.40
2019-04-12T00:58:57.827Z,2.30
2019-04-12T01:01:31.167Z,2.30
2019-04-12T01:04:01.306Z,2.30
2019-04-12T01:06:29.871Z,2.30
2019-04-12T01:08:58.460Z,2.30
2019-04-12T01:11:27.036Z,2.30
2019-04-12T01:13:58.050Z,2.30
2019-04-12T01:16:30.167Z,2.30
2019-04-12T01:21:26.330Z,2.30
2019-04-12T01:23:54.821Z,2.30
2019-04-12T01:26:23.262Z,2.40
2019-04-12T01:28:51.795Z,2.50
2019-04-12T01:31:20.237Z,2.50
2019-04-12T01:33:48.702Z,2.50
2019-04-12T01:36:17.159Z,2.50
2019-04-12T01:38:45.721Z,2.50
2019-04-12T01:41:14.185Z,2.60
2019-04-12T01:43:42.666Z,2.60
2019-04-12T01:46:11.151Z,2.60
2019-04-12T01:48:39.605Z,2.60
2019-04-12T01:51:08.047Z,2.60
2019-04-12T01:53:36.531Z,2.60
2019-04-12T01:56:05.022Z,2.60
2019-04-12T01:58:33.480Z,2.50
2019-04-12T02:01:01.978Z,2.40
2019-04-12T02:03:30.414Z,2.30
2019-04-12T02:05:58.903Z,2.20
2019-04-12T02:08:27.383Z,2.10
2019-04-12T02:10:55.931Z,2.00
2019-04-12T02:13:24.434Z,1.80
2019-04-12T02:15:52.987Z,1.70
2019-04-12T02:18:21.454Z,1.60
2019-04-12T02:20:50.003Z,1.50
2019-04-12T02:23:18.645Z,1.40
2019-04-12T02:25:47.302Z,1.30
2019-04-12T02:28:15.786Z,1.20
2019-04-12T02:30:46.055Z,1.10
2019-04-12T02:33:14.715Z,1.00
2019-04-12T02:35:44.708Z,1.00
2019-04-12T02:38:13.332Z,1.00
2019-04-12T02:40:43.610Z,0.90
2019-04-12T02:43:12.815Z,0.90
2019-04-12T02:45:44.342Z,0.90
2019-04-12T02:48:20.095Z,0.90
2019-04-12T02:50:53.585Z,0.90
2019-04-12T02:53:44.438Z,0.80
2019-04-12T02:56:33.472Z,0.80
2019-04-12T02:59:05.045Z,0.80
2019-04-12T03:01:34.809Z,0.80
2019-04-12T03:04:03.322Z,0.80
2019-04-12T03:06:32.326Z,0.80
2019-04-12T03:09:01.054Z,0.80
2019-04-12T03:11:31.173Z,0.70
2019-04-12T03:14:02.481Z,0.70
2019-04-12T03:16:32.240Z,0.70
2019-04-12T03:19:00.879Z,0.60
2019-04-12T03:21:29.406Z,0.60
2019-04-12T03:23:58.319Z,0.60
2019-04-12T03:26:27.113Z,0.60
2019-04-12T03:28:59.858Z,0.60
2019-04-12T03:31:30.265Z,0.50
2019-04-12T03:34:00.257Z,0.50
2019-04-12T03:36:30.945Z,0.50
2019-04-12T03:38:59.860Z,0.50
2019-04-12T03:41:28.744Z,0.50
2019-04-12T03:43:57.506Z,0.50
2019-04-12T03:46:26.358Z,0.40
2019-04-12T03:48:56.061Z,0.40
2019-04-12T03:51:25.098Z,0.40
2019-04-12T03:53:53.808Z,0.30
2019-04-12T03:56:22.819Z,0.30
2019-04-12T03:58:53.462Z,0.30
2019-04-12T04:01:22.110Z,0.30
2019-04-12T04:03:51.046Z,0.30
2019-04-12T04:06:19.886Z,0.30
2019-04-12T04:08:48.517Z,0.30
2019-04-12T04:11:17.245Z,0.20
2019-04-12T04:13:45.778Z,0.20
2019-04-12T04:16:16.134Z,0.20
2019-04-12T04:18:45.268Z,0.20
2019-04-12T04:21:18.962Z,0.20
2019-04-12T04:24:02.982Z,0.20
2019-04-12T04:26:33.568Z,0.20
2019-04-12T04:29:20.847Z,0.10
2019-04-12T04:32:09.124Z,0.10
2019-04-12T04:34:37.680Z,0.20
2019-04-12T04:37:06.308Z,0.10
2019-04-12T04:39:35.109Z,0.20
2019-04-12T04:42:04.276Z,0.10
2019-04-12T04:44:32.875Z,0.10
2019-04-12T04:47:01.495Z,0.20
2019-04-12T04:49:30.099Z,0.10
2019-04-12T04:52:00.149Z,0.10
2019-04-12T04:54:29.029Z,0.10
2019-04-12T04:56:57.486Z,0.20
2019-04-12T04:59:26.854Z,0.10
2019-04-12T05:01:55.560Z,0.10
2019-04-12T05:04:24.348Z,0.00
2019-04-12T05:06:52.795Z,0.10
2019-04-12T05:09:21.334Z,0.00
2019-04-12T05:11:50.065Z,0.00
2019-04-12T05:14:18.574Z,0.00
2019-04-12T05:16:47.189Z,0.00
2019-04-12T05:19:15.726Z,0.00
2019-04-12T05:21:44.450Z,-0.10
2019-04-12T05:24:13.079Z,-0.10
2019-04-12T05:26:45.736Z,0.00
2019-04-12T05:29:12.021Z,0.00
2019-04-12T05:31:40.641Z,0.00
2019-04-12T05:34:09.196Z,0.10
2019-04-12T05:36:38.694Z,0.10
2019-04-12T05:39:07.226Z,0.10
2019-04-12T05:41:35.896Z,0.20
2019-04-12T05:44:06.174Z,0.20
2019-04-12T05:46:56.097Z,0.20
2019-04-12T05:49:35.514Z,0.20
2019-04-12T05:52:04.039Z,0.10
2019-04-12T05:54:32.788Z,0.10
2019-04-12T05:57:02.749Z,0.20
2019-04-12T05:59:41.683Z,0.20
2019-04-12T06:02:31.586Z,0.10
2019-04-12T06:05:00.078Z,0.10
2019-04-12T06:07:28.667Z,0.10
2019-04-12T06:09:57.144Z,0.20
2019-04-12T06:12:25.822Z,0.20
2019-04-12T06:14:55.466Z,0.30
2019-04-12T06:17:24.208Z,0.40
2019-04-12T06:19:54.630Z,0.50
2019-04-12T06:22:23.135Z,0.50
2019-04-12T06:25:00.441Z,0.70
2019-04-12T06:27:43.338Z,0.70
2019-04-12T06:30:13.760Z,0.80
2019-04-12T06:32:42.298Z,0.80
2019-04-12T06:35:10.887Z,0.90
2019-04-12T06:37:39.442Z,0.90
2019-04-12T06:40:08.978Z,1.00
2019-04-12T06:42:37.526Z,1.00
2019-04-12T06:45:07.939Z,1.20
2019-04-12T06:47:36.443Z,1.40
2019-04-12T06:50:08.159Z,1.60
2019-04-12T06:52:36.622Z,1.80
2019-04-12T06:55:22.332Z,2.00
2019-04-12T06:57:50.783Z,2.20
2019-04-12T07:00:29.445Z,2.40
2019-04-12T07:02:59.873Z,2.70
2019-04-12T07:05:28.354Z,3.00
2019-04-12T07:07:56.883Z,2.90
2019-04-12T07:10:25.382Z,2.80
2019-04-12T07:12:53.865Z,2.90
2019-04-12T07:15:22.301Z,2.90
2019-04-12T07:17:50.792Z,2.80
2019-04-12T07:20:19.277Z,3.00
2019-04-12T07:22:47.764Z,3.10
2019-04-12T07:25:16.209Z,3.30
2019-04-12T07:27:44.659Z,3.50
2019-04-12T07:30:13.564Z,3.70
2019-04-12T07:32:42.061Z,4.00
2019-04-12T07:35:10.688Z,4.10
2019-04-12T07:37:39.175Z,4.10
2019-04-12T07:40:07.768Z,4.20
2019-04-12T07:42:36.275Z,4.30
2019-04-12T07:45:06.206Z,4.60
2019-04-12T07:47:34.726Z,4.60
2019-04-12T07:50:08.989Z,4.90
2019-04-12T07:52:37.422Z,4.90
2019-04-12T07:55:25.430Z,5.00
2019-04-12T07:58:07.421Z,5.20
2019-04-12T08:00:43.471Z,5.20
2019-04-12T08:03:16.262Z,5.30
2019-04-12T08:05:46.380Z,5.50
2019-04-12T08:08:14.821Z,5.50
2019-04-12T08:10:43.383Z,5.40
2019-04-12T08:13:11.823Z,5.40
2019-04-12T08:15:40.306Z,5.30
2019-04-12T08:18:08.752Z,5.20
2019-04-12T08:20:37.235Z,5.30
2019-04-12T08:23:05.715Z,5.30
2019-04-12T08:25:34.197Z,5.60
2019-04-12T08:28:02.649Z,5.70
2019-04-12T08:30:31.128Z,5.70
2019-04-12T08:32:59.619Z,5.90
2019-04-12T08:35:28.073Z,6.00
2019-04-12T08:38:04.828Z,6.20
2019-04-12T08:40:26.794Z,6.30
2019-04-12T08:42:55.278Z,6.60
2019-04-12T08:45:23.739Z,6.70
2019-04-12T08:47:52.225Z,6.90
2019-04-12T08:50:20.690Z,6.90
2019-04-12T08:52:49.266Z,6.60
2019-04-12T08:55:18.005Z,6.70
2019-04-12T08:57:46.817Z,6.70
2019-04-12T09:00:15.646Z,6.70
2019-04-12T09:02:44.228Z,6.90
2019-04-12T09:05:12.841Z,7.10
2019-04-12T09:07:41.373Z,7.00
2019-04-12T09:10:10.121Z,6.80
2019-04-12T09:12:38.730Z,7.00
2019-04-12T09:15:07.420Z,7.00
2019-04-12T09:17:35.977Z,7.20
2019-04-12T09:20:16.933Z,7.40
2019-04-12T09:22:47.102Z,7.40
2019-04-12T09:25:22.957Z,7.60
2019-04-12T09:27:51.450Z,7.60
2019-04-12T09:30:19.959Z,7.80
2019-04-12T09:32:48.527Z,7.90
2019-04-12T09:35:17.116Z,7.80
2019-04-12T09:37:45.593Z,8.20
2019-04-12T09:40:14.094Z,8.40
2019-04-12T09:42:42.541Z,8.50
2019-04-12T09:45:11.166Z,8.40
2019-04-12T09:47:39.675Z,8.30
2019-04-12T09:50:08.567Z,8.10
2019-04-12T09:52:37.021Z,8.00
2019-04-12T09:55:06.535Z,8.50
2019-04-12T09:57:34.991Z,8.70
2019-04-12T10:00:05.016Z,8.70
2019-04-12T10:02:33.534Z,8.50
2019-04-12T10:05:02.023Z,8.70
2019-04-12T10:07:30.473Z,9.00
2019-04-12T10:09:58.962Z,9.30
2019-04-12T10:12:27.404Z,9.70
2019-04-12T10:14:55.890Z,9.80
2019-04-12T10:17:24.658Z,10.30
2019-04-12T10:19:53.100Z,10.80
2019-04-12T10:22:21.566Z,11.10
2019-04-12T10:24:50.048Z,11.40
2019-04-12T10:27:18.531Z,11.20
2019-04-12T10:29:47.023Z,11.10
2019-04-12T10:32:15.725Z,11.10
2019-04-12T10:34:55.247Z,10.80
2019-04-12T10:37:14.382Z,10.70
2019-04-12T10:39:42.844Z,10.50
2019-04-12T10:42:11.388Z,10.30
2019-04-12T10:44:56.494Z,10.50
2019-04-12T10:47:35.405Z,10.50
2019-04-12T10:50:25.402Z,10.50
2019-04-12T10:53:10.322Z,10.60
2019-04-12T10:55:40.425Z,10.60
2019-04-12T10:58:08.872Z,11.30
2019-04-12T11:00:44.919Z,12.30
2019-04-12T11:03:13.373Z,12.70
2019-04-12T11:05:41.868Z,12.90
2019-04-12T11:08:10.324Z,13.10
2019-04-12T11:10:38.795Z,12.70
2019-04-12T11:13:07.246Z,12.20
2019-04-12T11:15:35.838Z,12.70
2019-04-12T11:18:04.424Z,13.00
2019-04-12T11:20:32.906Z,13.40
2019-04-12T11:23:01.394Z,13.50
2019-04-12T11:25:29.994Z,13.30
2019-04-12T11:27:58.521Z,13.60
2019-04-12T11:30:27.054Z,13.80
2019-04-12T11:32:55.534Z,13.40
2019-04-12T11:35:24.014Z,13.20
2019-04-12T11:37:52.504Z,13.40
2019-04-12T11:40:21.401Z,13.60
2019-04-12T11:42:50.129Z,13.80
2019-04-12T11:45:18.754Z,13.90
2019-04-12T11:47:47.216Z,14.00
2019-04-12T11:50:16.220Z,13.90
2019-04-12T11:52:44.692Z,13.40
2019-04-12T11:55:13.353Z,13.60
2019-04-12T11:57:41.812Z,13.00
2019-04-12T12:00:13.579Z,12.50
2019-04-12T12:02:52.659Z,12.50
2019-04-12T12:05:31.530Z,12.10
2019-04-12T12:08:01.655Z,11.60
2019-04-12T12:10:47.966Z,11.00
2019-04-12T12:13:18.051Z,10.80
2019-04-12T12:15:50.822Z,10.80
2019-04-12T12:18:20.955Z,10.50
2019-04-12T12:20:49.404Z,10.40
2019-04-12T12:23:17.908Z,10.10
2019-04-12T12:25:46.363Z,9.70
2019-04-12T12:28:14.833Z,9.60
2019-04-12T12:30:43.307Z,9.40
2019-04-12T12:33:11.743Z,9.30
2019-04-12T12:35:40.226Z,9.20
2019-04-12T12:38:08.682Z,9.10
2019-04-12T12:40:37.168Z,9.20
2019-04-12T12:43:05.611Z,9.10
2019-04-12T12:45:34.053Z,9.20
2019-04-12T12:48:02.573Z,9.10
2019-04-12T12:50:31.064Z,8.80
2019-04-12T12:52:59.590Z,8.90
2019-04-12T12:55:28.121Z,9.00
2019-04-12T12:57:56.658Z,8.90
2019-04-12T13:00:25.143Z,8.80
2019-04-12T13:02:53.595Z,8.80
2019-04-12T13:05:22.092Z,8.80
2019-04-12T13:07:50.535Z,8.70
2019-04-12T13:10:19.163Z,8.70
2019-04-12T13:12:47.641Z,8.70
2019-04-12T13:15:16.258Z,8.70
2019-04-12T13:17:44.901Z,8.70
2019-04-12T13:20:13.416Z,8.70
2019-04-12T13:22:42.035Z,8.90
2019-04-12T13:25:10.473Z,9.00
2019-04-12T13:27:38.966Z,9.00
2019-04-12T13:30:15.356Z,9.00
2019-04-12T13:32:48.412Z,9.10
2019-04-12T13:35:21.089Z,9.00
2019-04-12T13:37:51.289Z,9.10
2019-04-12T13:40:27.501Z,9.10
2019-04-12T13:42:57.622Z,9.10
2019-04-12T13:45:26.704Z,9.10
2019-04-12T13:47:55.145Z,9.00
2019-04-12T13:50:23.689Z,9.00
2019-04-12T13:52:52.205Z,9.10
2019-04-12T13:55:20.826Z,9.10
2019-04-12T13:57:49.274Z,9.00
2019-04-12T14:00:21.028Z,8.90
2019-04-12T14:02:49.612Z,9.00
2019-04-12T14:05:18.164Z,8.90
2019-04-12T14:07:46.644Z,8.90
2019-04-12T14:10:16.421Z,8.90
2019-04-12T14:12:44.922Z,8.90
2019-04-12T14:15:14.547Z,8.90
2019-04-12T14:17:43.025Z,8.90
2019-04-12T14:20:11.574Z,8.80
2019-04-12T14:22:40.022Z,8.80
2019-04-12T14:25:08.646Z,8.60
2019-04-12T14:27:37.127Z,8.70
2019-04-12T14:30:08.482Z,8.80
2019-04-12T14:32:41.394Z,8.60
2019-04-12T14:35:12.221Z,8.80
2019-04-12T14:37:42.336Z,8.90
2019-04-12T14:40:10.932Z,9.10
2019-04-12T14:42:39.407Z,9.10
2019-04-12T14:45:15.510Z,9.00
2019-04-12T14:47:45.697Z,8.90
2019-04-12T14:50:14.146Z,8.80
2019-04-12T14:52:42.588Z,8.70
2019-04-12T14:55:11.199Z,8.70
2019-04-12T14:57:39.648Z,8.70
2019-04-12T15:00:10.498Z,8.60
2019-04-12T15:02:38.950Z,8.50
2019-04-12T15:05:09.688Z,8.60
2019-04-12T15:07:38.335Z,8.40
2019-04-12T15:10:07.727Z,8.50
2019-04-12T15:12:36.230Z,8.60
2019-04-12T15:15:07.053Z,8.50
2019-04-12T15:17:35.512Z,8.50
2019-04-12T15:20:06.303Z,8.60
2019-04-12T15:22:34.765Z,8.80
2019-04-12T15:25:04.025Z,8.80
2019-04-12T15:27:32.571Z,8.70
2019-04-12T15:30:01.209Z,8.70
2019-04-12T15:32:29.654Z,8.70
2019-04-12T15:34:58.164Z,8.70
2019-04-12T15:37:26.622Z,8.60
2019-04-12T15:39:55.157Z,8.30
2019-04-12T15:42:23.632Z,8.20
2019-04-12T15:44:52.092Z,8.20
2019-04-12T15:47:20.572Z,8.10
2019-04-12T15:49:49.027Z,7.90
2019-04-12T15:52:17.716Z,8.00
2019-04-12T15:54:46.196Z,8.10
2019-04-12T15:57:15.172Z,8.20
2019-04-12T15:59:44.013Z,8.10
2019-04-12T16:02:13.133Z,8.10
2019-04-12T16:04:42.601Z,8.00
2019-04-12T16:07:11.261Z,8.00
2019-04-12T16:09:41.927Z,7.80
2019-04-12T16:12:16.124Z,7.80
2019-04-12T16:15:05.693Z,7.70
2019-04-12T16:17:49.294Z,7.80
2019-04-12T16:20:17.786Z,7.70
2019-04-12T16:22:46.222Z,7.70
2019-04-12T16:25:14.781Z,7.60
2019-04-12T16:27:47.468Z,7.60
2019-04-12T16:30:35.762Z,7.60
2019-04-12T16:33:12.173Z,7.50
2019-04-12T16:35:42.292Z,7.40
2019-04-12T16:38:12.374Z,7.30
2019-04-12T16:40:40.851Z,7.20
2019-04-12T16:43:09.389Z,7.30
2019-04-12T16:45:37.844Z,7.10
2019-04-12T16:48:06.399Z,7.10
2019-04-12T16:50:34.857Z,7.10
2019-04-12T16:53:03.460Z,7.10
2019-04-12T16:55:31.934Z,7.00
2019-04-12T16:58:00.415Z,7.00
2019-04-12T17:00:37.561Z,7.00
2019-04-12T17:03:06.764Z,6.90
2019-04-12T17:05:36.241Z,6.80
2019-04-12T17:08:06.054Z,6.80
2019-04-12T17:10:34.824Z,6.80
2019-04-12T17:13:03.486Z,6.80
2019-04-12T17:15:32.099Z,6.80
2019-04-12T17:18:00.578Z,6.80
2019-04-12T17:20:29.054Z,6.70
2019-04-12T17:22:57.694Z,6.70
2019-04-12T17:25:26.135Z,6.60
2019-04-12T17:27:54.627Z,6.60
2019-04-12T17:30:23.070Z,6.60
2019-04-12T17:32:51.738Z,6.60
2019-04-12T17:35:20.216Z,6.60
2019-04-12T17:37:48.677Z,6.60
2019-04-12T17:40:17.293Z,6.50
2019-04-12T17:42:45.849Z,6.50
2019-04-12T17:45:14.626Z,6.40
2019-04-12T17:47:43.078Z,6.40
2019-04-12T17:50:30.768Z,6.30
2019-04-12T17:53:00.856Z,6.30
2019-04-12T17:55:31.036Z,6.30
2019-04-12T17:57:59.515Z,6.30
2019-04-12T18:00:32.531Z,6.20
2019-04-12T18:03:01.015Z,6.20
2019-04-12T18:05:29.539Z,6.20
2019-04-12T18:07:58.024Z,6.10
2019-04-12T18:10:28.774Z,6.10
2019-04-12T18:12:56.656Z,6.10
2019-04-12T18:15:25.108Z,6.10
2019-04-12T18:17:53.591Z,6.00
2019-04-12T18:20:22.060Z,6.00
2019-04-12T18:22:51.448Z,6.00
2019-04-12T18:25:20.026Z,5.90
2019-04-12T18:27:48.475Z,5.90
2019-04-12T18:30:18.366Z,6.00
2019-04-12T18:32:49.750Z,6.00
2019-04-12T18:35:17.035Z,5.90
2019-04-12T18:37:45.497Z,5.90
2019-04-12T18:40:14.143Z,5.90
2019-04-12T18:42:42.654Z,5.80
2019-04-12T18:45:11.473Z,5.80
2019-04-12T18:47:39.918Z,5.70
2019-04-12T18:50:08.647Z,5.70
2019-04-12T18:52:37.124Z,5.70
2019-04-12T18:55:07.376Z,5.70
2019-04-12T18:57:35.914Z,5.70
2019-04-12T19:00:07.620Z,5.70
2019-04-12T19:02:36.205Z,5.60
2019-04-12T19:05:06.871Z,5.60
2019-04-12T19:07:35.338Z,5.50
2019-04-12T19:10:05.931Z,5.40
2019-04-12T19:12:34.604Z,5.30
2019-04-12T19:15:04.314Z,5.30
2019-04-12T19:17:32.961Z,5.30
2019-04-12T19:20:01.419Z,5.20
2019-04-12T19:22:29.898Z,5.20
2019-04-12T19:24:58.357Z,5.20
2019-04-12T19:27:26.854Z,5.20
2019-04-12T19:29:55.332Z,5.20
2019-04-12T19:32:38.741Z,5.10
2019-04-12T19:35:00.082Z,5.20
2019-04-12T19:37:32.895Z,5.10
2019-04-12T19:40:03.011Z,5.10
2019-04-12T19:42:31.513Z,5.00
2019-04-12T19:45:00.011Z,5.00
2019-04-12T19:47:28.480Z,4.90
2019-04-12T19:49:56.971Z,4.90
2019-04-12T19:52:25.425Z,4.90
2019-04-12T19:54:53.916Z,4.90
2019-04-12T19:57:22.432Z,4.90
2019-04-12T19:59:50.908Z,4.80
2019-04-12T20:02:19.375Z,4.80
2019-04-12T20:04:47.857Z,4.80
2019-04-12T20:07:16.340Z,4.80
2019-04-12T20:09:44.802Z,4.80
2019-04-12T20:12:13.502Z,4.80
2019-04-12T20:14:42.231Z,4.70
2019-04-12T20:17:10.834Z,4.70
2019-04-12T20:19:39.376Z,4.70
2019-04-12T20:22:08.042Z,4.70
2019-04-12T20:24:36.522Z,4.70
2019-04-12T20:27:05.011Z,4.60
2019-04-12T20:29:33.465Z,4.70
2019-04-12T20:32:01.982Z,4.70
2019-04-12T20:34:30.487Z,4.70
2019-04-12T20:36:58.954Z,4.70
2019-04-12T20:39:27.446Z,4.70
2019-04-12T20:41:55.898Z,4.70
2019-04-12T20:44:26.841Z,4.70
2019-04-12T20:46:54.674Z,4.70
2019-04-12T20:49:23.166Z,4.60
2019-04-12T20:51:51.628Z,4.60
2019-04-12T20:54:20.103Z,4.70
2019-04-12T20:56:48.550Z,4.60
2019-04-12T20:59:17.034Z,4.70
2019-04-12T21:01:45.483Z,4.70
2019-04-12T21:04:14.025Z,4.60
2019-04-12T21:06:42.511Z,4.60
2019-04-12T21:09:10.993Z,4.60
2019-04-12T21:11:39.455Z,4.50
2019-04-12T21:14:07.929Z,4.50
2019-04-12T21:16:36.490Z,4.60
2019-04-12T21:19:05.145Z,4.60
2019-04-12T21:21:33.590Z,4.60
2019-04-12T21:24:02.101Z,4.50
2019-04-12T21:26:33.698Z,4.50
2019-04-12T21:29:00.757Z,4.60
2019-04-12T21:31:29.383Z,4.50
2019-04-12T21:33:57.830Z,4.40
2019-04-12T21:36:26.386Z,4.40
2019-04-12T21:38:54.846Z,4.40
2019-04-12T21:41:23.335Z,4.40
2019-04-12T21:43:51.784Z,4.40
2019-04-12T21:46:20.369Z,4.40
2019-04-12T21:48:48.892Z,4.40
2019-04-12T21:51:17.346Z,4.40
2019-04-12T21:53:45.892Z,4.30
2019-04-12T21:56:14.382Z,4.30
2019-04-12T21:58:42.829Z,4.30
2019-04-12T22:01:14.417Z,4.30
2019-04-12T22:03:43.434Z,4.20
2019-04-12T22:06:11.927Z,4.20
2019-04-12T22:08:40.382Z,4.30
2019-04-12T22:11:08.871Z,4.20
2019-04-12T22:13:37.365Z,4.20
2019-04-12T22:16:05.886Z,4.20
2019-04-12T22:18:34.377Z,4.20
2019-04-12T22:21:02.818Z,4.20
2019-04-12T22:23:31.302Z,4.20
2019-04-12T22:26:00.330Z,4.10
2019-04-12T22:28:28.819Z,4.10
2019-04-12T22:30:57.354Z,4.10
2019-04-12T22:33:26.071Z,4.00
2019-04-12T22:35:54.549Z,3.90
2019-04-12T22:38:23.044Z,3.90
2019-04-12T22:40:51.508Z,3.80
2019-04-12T22:43:20.011Z,3.80
2019-04-12T22:45:48.465Z,3.90
2019-04-12T22:48:16.921Z,3.80
2019-04-12T22:50:45.402Z,3.80
2019-04-12T22:53:13.877Z,3.90
2019-04-12T22:55:42.363Z,3.90
2019-04-12T22:58:10.807Z,3.80
2019-04-12T23:00:39.292Z,3.80
2019-04-12T23:03:07.729Z,3.80
2019-04-12T23:05:38.527Z,3.80
2019-04-12T23:08:06.987Z,3.70
2019-04-12T23:10:36.124Z,3.60
2019-04-12T23:13:04.629Z,3.60
2019-04-12T23:15:33.112Z,3.60
2019-04-12T23:18:01.598Z,3.50
2019-04-12T23:20:30.057Z,3.40
2019-04-12T23:22:58.547Z,3.40
2019-04-12T23:25:27.104Z,3.40
2019-04-12T23:27:55.570Z,3.30
2019-04-12T23:30:34.494Z,3.20
2019-04-12T23:33:03.096Z,3.10
2019-04-12T23:35:33.226Z,3.00
2019-04-12T23:38:01.734Z,3.00
2019-04-12T23:40:30.247Z,3.10
2019-04-12T23:42:58.716Z,3.00
2019-04-12T23:45:27.207Z,2.80
2019-04-12T23:47:55.759Z,2.70
2019-04-12T23:50:24.215Z,2.60
2019-04-12T23:52:52.684Z,2.50
2019-04-12T23:55:21.171Z,2.40
2019-04-12T23:57:49.687Z,2.30
